Time;durP1;ratioP1;P1;durP2;ratioP2;P2;SDS_P1;SDS_P2;PMS_P1;PMS_P2;Temp;Humidity;BMP_temperature;BMP_pressure;BME280_temperature;BME280_humidity;BME280_pressure;Samples;Min_cycle;Max_cycle;Signal;HPM_P1;HPM_P2
2023/04/11 00:00:29;;;;;;;1.83;1.57;;;;;;;16.50;42.45;99261.16;5052799;28;20250;-78
2023/04/11 00:02:58;;;;;;;1.73;1.60;;;;;;;16.49;42.25;99243.56;5054883;28;20212;-78
2023/04/11 00:05:26;;;;;;;3.33;2.28;;;;;;;16.47;42.18;99242.91;5048076;28;20207;-78
2023/04/11 00:07:51;;;;;;;2.60;1.90;;;;;;;16.46;42.10;99235.91;5050752;28;20217;-78
2023/04/11 00:10:17;;;;;;;2.70;1.63;;;;;;;16.48;42.15;99222.53;5054788;28;20204;-79
2023/04/11 00:12:42;;;;;;;13.27;1.87;;;;;;;16.49;42.02;99222.34;5041718;28;20190;-78
2023/04/11 00:15:08;;;;;;;1.50;1.13;;;;;;;16.48;42.02;99217.22;5051845;28;20631;-78
2023/04/11 00:17:36;;;;;;;2.25;1.45;;;;;;;16.47;42.00;99202.28;5054374;28;20580;-78
2023/04/11 00:20:06;;;;;;;2.20;1.70;;;;;;;16.47;42.02;99205.78;5053115;28;20224;-78
2023/04/11 00:22:33;;;;;;;2.00;1.38;;;;;;;16.44;42.21;99184.84;5056300;28;20211;-78
2023/04/11 00:24:59;;;;;;;3.40;1.83;;;;;;;16.45;42.36;99180.41;5052059;28;20670;-79
2023/04/11 00:27:24;;;;;;;1.60;1.50;;;;;;;16.43;42.42;99177.88;5055213;28;20209;-78
2023/04/11 00:29:51;;;;;;;1.40;1.30;;;;;;;16.43;42.35;99199.09;5038033;28;20195;-78
2023/04/11 00:32:17;;;;;;;2.75;1.40;;;;;;;16.42;42.66;99193.91;5037238;28;20678;-78
2023/04/11 00:34:43;;;;;;;2.15;1.70;;;;;;;16.41;42.91;99200.22;5052741;28;20456;-78
2023/04/11 00:37:09;;;;;;;2.05;1.40;;;;;;;16.41;43.13;99195.75;5054241;28;20612;-78
2023/04/11 00:39:34;;;;;;;3.57;1.87;;;;;;;16.39;43.26;99205.69;5036625;28;20670;-78
2023/04/11 00:42:05;;;;;;;1.53;1.43;;;;;;;16.41;43.55;99211.66;5050127;28;20556;-78
2023/04/11 00:44:31;;;;;;;3.30;1.30;;;;;;;16.41;43.63;99216.94;5051633;28;20204;-78
2023/04/11 00:46:57;;;;;;;2.23;1.50;;;;;;;16.38;44.10;99211.94;5038307;28;20203;-78
2023/04/11 00:49:22;;;;;;;2.73;1.60;;;;;;;16.40;44.26;99212.63;5051984;28;20535;-78
2023/04/11 00:51:48;;;;;;;2.07;1.50;;;;;;;16.40;44.57;99219.75;5033547;28;20191;-78
2023/04/11 00:54:15;;;;;;;2.23;1.57;;;;;;;16.38;44.74;99226.03;5038111;28;20463;-78
2023/04/11 00:56:42;;;;;;;2.08;1.92;;;;;;;16.38;45.11;99233.97;5036238;28;20207;-78
2023/04/11 00:59:08;;;;;;;2.65;1.63;;;;;;;16.38;45.44;99228.66;5052460;28;20202;-78
2023/04/11 01:01:35;;;;;;;2.33;1.43;;;;;;;16.37;45.99;99226.19;5040371;28;20219;-78
2023/04/11 01:04:01;;;;;;;2.00;1.80;;;;;;;16.36;46.19;99228.00;5050829;28;20812;-78
2023/04/11 01:06:29;;;;;;;1.92;1.35;;;;;;;16.36;46.85;99221.84;5053343;28;20210;-78
2023/04/11 01:08:55;;;;;;;2.45;1.30;;;;;;;16.32;47.35;99223.13;5037636;28;20206;-78
2023/04/11 01:11:21;;;;;;;3.33;1.40;;;;;;;16.30;47.89;99217.94;5039200;28;20189;-78
2023/04/11 01:13:47;;;;;;;3.63;1.20;;;;;;;16.28;48.09;99211.13;5056843;28;20656;-78
2023/04/11 01:16:14;;;;;;;6.35;1.98;;;;;;;16.25;49.07;99216.72;5039808;28;20197;-78
2023/04/11 01:18:40;;;;;;;2.13;1.10;;;;;;;16.20;50.01;99222.44;5054525;28;20208;-78
2023/04/11 01:21:07;;;;;;;2.20;1.80;;;;;;;16.10;50.62;99214.53;5039336;28;20226;-78
2023/04/11 01:23:33;;;;;;;1.95;1.58;;;;;;;16.05;51.25;99214.09;5055503;28;20224;-77
2023/04/11 01:25:58;;;;;;;2.90;1.73;;;;;;;15.99;51.43;99225.28;5057386;28;20938;-78
2023/04/11 01:28:24;;;;;;;2.13;1.63;;;;;;;15.93;51.93;99241.72;5041401;28;20193;-78
2023/04/11 01:30:50;;;;;;;2.53;1.60;;;;;;;15.85;53.23;99231.84;5043136;28;20693;-78
2023/04/11 01:33:15;;;;;;;1.70;1.60;;;;;;;15.78;54.00;99236.03;5056605;28;20565;-78
2023/04/11 01:35:41;;;;;;;4.50;1.70;;;;;;;15.65;55.85;99235.44;5054044;28;20192;-78
2023/04/11 01:38:08;;;;;;;2.10;1.58;;;;;;;15.48;57.21;99229.03;5039049;28;20554;-78
2023/04/11 01:40:34;;;;;;;2.03;1.73;;;;;;;15.34;57.91;99238.22;5043257;28;20694;-78
2023/04/11 01:43:03;;;;;;;2.60;1.60;;;;;;;15.20;58.75;99238.56;5038264;28;20210;-78
2023/04/11 01:45:29;;;;;;;1.52;1.42;;;;;;;15.08;59.44;99237.88;5036966;28;20825;-78
2023/04/11 01:47:55;;;;;;;2.30;1.67;;;;;;;15.00;59.95;99245.63;5056065;28;20690;-78
2023/04/11 01:50:21;;;;;;;2.60;1.60;;;;;;;14.94;60.16;99240.91;5055252;28;20447;-78
2023/04/11 01:52:47;;;;;;;1.90;1.47;;;;;;;14.91;60.69;99246.47;5054232;28;20255;-78
2023/04/11 01:55:12;;;;;;;1.95;1.60;;;;;;;14.86;60.84;99251.31;5053653;28;20460;-78
2023/04/11 01:57:38;;;;;;;2.50;1.43;;;;;;;14.82;61.04;99264.81;5057056;28;20254;-78
2023/04/11 02:00:09;;;;;;;1.67;1.57;;;;;;;14.78;61.37;99252.81;5038234;28;20717;-78
2023/04/11 02:02:40;;;;;;;5.18;1.40;;;;;;;14.78;61.46;99260.72;5056528;28;20240;-78
2023/04/11 02:05:06;;;;;;;2.13;1.50;;;;;;;14.77;61.28;99264.34;5040944;28;20205;-78
2023/04/11 02:07:31;;;;;;;1.63;1.40;;;;;;;14.78;61.35;99268.66;5054729;28;20201;-78
2023/04/11 02:09:57;;;;;;;1.50;1.40;;;;;;;14.73;61.71;99255.00;5055031;28;20205;-77
2023/04/11 02:12:23;;;;;;;1.77;1.50;;;;;;;14.69;61.93;99250.97;5037408;28;20695;-78
2023/04/11 02:14:48;;;;;;;2.43;1.60;;;;;;;14.63;62.40;99254.13;5038727;28;20221;-77
2023/04/11 02:17:16;;;;;;;4.70;1.83;;;;;;;14.55;63.17;99246.84;5040958;28;20722;-78
2023/04/11 02:19:44;;;;;;;3.28;1.67;;;;;;;14.52;63.59;99235.69;5054859;28;20256;-78
2023/04/11 02:22:10;;;;;;;1.40;1.30;;;;;;;14.44;64.49;99238.97;5052538;28;20201;-77
2023/04/11 02:24:36;;;;;;;2.08;1.73;;;;;;;14.38;64.75;99247.44;5041506;28;20605;-78
2023/04/11 02:27:02;;;;;;;1.73;1.63;;;;;;;14.31;65.38;99244.50;5039630;28;20201;-78
2023/04/11 02:29:27;;;;;;;1.85;1.73;;;;;;;14.28;65.54;99247.38;5037465;28;20208;-77
2023/04/11 02:31:53;;;;;;;3.40;1.93;;;;;;;14.28;65.77;99243.88;5038346;28;20197;-78
2023/04/11 02:34:19;;;;;;;3.50;2.00;;;;;;;14.24;66.02;99247.78;5040017;28;20434;-78
2023/04/11 02:36:44;;;;;;;1.53;1.43;;;;;;;14.23;66.13;99252.22;5055519;28;20201;-77
2023/04/11 02:39:10;;;;;;;1.93;1.40;;;;;;;14.20;66.09;99256.91;5040102;28;20211;-78
2023/04/11 02:41:40;;;;;;;2.35;2.08;;;;;;;14.17;66.10;99248.25;5038993;28;20209;-78
2023/04/11 02:44:06;;;;;;;2.67;2.03;;;;;;;14.16;66.12;99245.78;5054566;28;20260;-78
2023/04/11 02:46:32;;;;;;;2.20;1.80;;;;;;;14.14;66.39;99237.97;5053389;28;20323;-77
2023/04/11 02:48:58;;;;;;;4.90;1.80;;;;;;;14.14;66.08;99234.50;5036926;28;20491;-78
2023/04/11 02:51:23;;;;;;;1.67;1.57;;;;;;;14.12;66.49;99223.22;5053816;28;21632;-78
2023/04/11 02:53:49;;;;;;;3.43;1.80;;;;;;;14.05;66.96;99214.97;5039014;28;20205;-79
2023/04/11 02:56:18;;;;;;;3.13;2.30;;;;;;;14.07;66.57;99220.13;5038063;28;20205;-79
2023/04/11 02:58:45;;;;;;;2.60;1.63;;;;;;;14.04;66.74;99223.03;5037840;28;20632;-78
2023/04/11 03:01:17;;;;;;;3.55;2.13;;;;;;;14.02;66.90;99224.97;5052988;28;20205;-79
2023/04/11 03:03:43;;;;;;;1.58;1.40;;;;;;;14.01;67.17;99236.50;5038725;28;20751;-79
2023/04/11 03:06:10;;;;;;;2.70;2.10;;;;;;;14.03;67.47;99243.31;5039715;28;20430;-79
2023/04/11 03:08:37;;;;;;;2.35;2.15;;;;;;;14.02;67.75;99240.81;5040229;28;20235;-78
2023/04/11 03:11:03;;;;;;;3.10;2.10;;;;;;;14.01;67.60;99241.78;5038389;28;20284;-79
2023/04/11 03:13:29;;;;;;;3.23;2.00;;;;;;;14.00;67.46;99248.03;5053627;28;20542;-79
2023/04/11 03:15:54;;;;;;;3.13;1.83;;;;;;;13.97;67.56;99243.00;5038310;28;21051;-78
2023/04/11 03:18:24;;;;;;;1.92;1.50;;;;;;;13.95;67.73;99243.94;5038192;28;20208;-78
2023/04/11 03:20:51;;;;;;;1.80;1.70;;;;;;;13.94;67.68;99246.75;5035799;28;20205;-78
2023/04/11 03:23:16;;;;;;;2.85;1.63;;;;;;;13.94;67.78;99254.66;5053237;28;20546;-78
2023/04/11 03:25:46;;;;;;;1.93;1.70;;;;;;;13.93;67.77;99259.09;5040603;28;20237;-78
2023/04/11 03:28:13;;;;;;;2.20;2.00;;;;;;;13.93;67.76;99255.59;5035939;28;20200;-79
2023/04/11 03:30:41;;;;;;;1.70;1.60;;;;;;;13.91;67.76;99242.56;5051916;28;20196;-79
2023/04/11 03:33:08;;;;;;;5.38;2.20;;;;;;;13.91;67.60;99245.19;5040375;28;20198;-79
2023/04/11 03:35:35;;;;;;;1.80;1.70;;;;;;;13.91;67.49;99245.19;5045251;28;20607;-78
2023/04/11 03:38:00;;;;;;;1.92;1.73;;;;;;;13.88;67.46;99245.44;5035924;28;20811;-78
2023/04/11 03:40:25;;;;;;;1.97;1.37;;;;;;;13.88;67.47;99248.09;5037454;28;20269;-79
2023/04/11 03:43:02;;;;;;;1.52;1.42;;;;;;;13.88;67.46;99255.16;5038361;28;20212;-79
2023/04/11 03:45:30;;;;;;;2.17;2.03;;;;;;;13.89;67.02;99254.19;5054100;28;20625;-79
2023/04/11 03:47:58;;;;;;;1.90;1.67;;;;;;;13.86;67.05;99270.31;5039001;28;20201;-79
2023/04/11 03:50:30;;;;;;;2.20;1.33;;;;;;;13.87;66.88;99283.34;5038059;28;20190;-78
2023/04/11 03:52:59;;;;;;;2.45;1.50;;;;;;;13.86;66.84;99276.41;5043354;28;20205;-78
2023/04/11 03:55:26;;;;;;;2.25;1.50;;;;;;;13.90;66.59;99285.75;5042015;28;20561;-78
2023/04/11 03:57:53;;;;;;;5.32;3.38;;;;;;;13.91;66.42;99279.50;5042602;28;20201;-79
2023/04/11 04:00:19;;;;;;;2.97;1.20;;;;;;;13.91;66.33;99279.50;5039443;28;20707;-78
2023/04/11 04:02:56;;;;;;;2.10;1.65;;;;;;;13.88;66.09;99285.06;5044868;28;20208;-79
2023/04/11 04:05:22;;;;;;;2.92;1.60;;;;;;;13.92;66.05;99297.03;5039664;28;20953;-78
2023/04/11 04:07:47;;;;;;;1.80;1.70;;;;;;;13.92;66.13;99298.81;5059644;28;20530;-79
2023/04/11 04:10:23;;;;;;;2.17;1.58;;;;;;;13.92;66.17;99302.31;5042582;28;20434;-79
2023/04/11 04:12:52;;;;;;;1.70;1.50;;;;;;;13.92;66.08;99304.94;5043643;28;20194;-78
2023/04/11 04:15:31;;;;;;;2.60;1.80;;;;;;;13.92;65.92;99301.47;5042695;28;20205;-78
2023/04/11 04:17:57;;;;;;;1.90;1.50;;;;;;;13.91;65.94;99299.81;5044262;28;20209;-79
2023/04/11 04:20:40;;;;;;;2.78;1.95;;;;;;;13.90;65.71;99298.94;5036323;28;20205;-78
2023/04/11 04:23:06;;;;;;;2.08;1.35;;;;;;;13.88;65.76;99316.72;5042089;28;20258;-78
2023/04/11 04:25:49;;;;;;;1.85;1.20;;;;;;;13.83;66.06;99365.59;5040837;28;20193;-78
2023/04/11 04:28:21;;;;;;;1.17;1.00;;;;;;;13.76;64.87;99373.16;5043687;28;20626;-78
2023/04/11 04:30:48;;;;;;;1.02;0.90;;;;;;;13.61;63.89;99399.00;5054305;28;20977;-78
2023/04/11 04:33:17;;;;;;;1.00;0.70;;;;;;;13.43;63.28;99393.38;5039318;28;20253;-78
2023/04/11 04:35:45;;;;;;;1.27;0.70;;;;;;;13.22;62.11;99377.38;5060568;28;20437;-78
2023/04/11 04:38:16;;;;;;;0.90;0.60;;;;;;;13.02;62.12;99396.56;5042357;28;20454;-78
2023/04/11 04:40:44;;;;;;;0.60;0.50;;;;;;;12.83;62.36;99387.44;5042064;28;20674;-78
2023/04/11 04:43:17;;;;;;;0.98;0.80;;;;;;;12.66;62.69;99408.09;5057755;28;20902;-78
2023/04/11 04:45:55;;;;;;;1.52;0.60;;;;;;;12.47;63.12;99401.56;5040058;28;20698;-78
2023/04/11 04:48:25;;;;;;;0.70;0.60;;;;;;;12.27;63.59;99410.97;5042668;28;20215;-78
2023/04/11 04:50:51;;;;;;;1.97;1.23;;;;;;;12.15;63.86;99422.41;5039360;28;20351;-78
2023/04/11 04:53:18;;;;;;;1.00;0.65;;;;;;;12.02;63.96;99432.16;5057713;28;20455;-78
2023/04/11 04:55:48;;;;;;;0.90;0.60;;;;;;;11.92;63.82;99424.09;5041121;28;20294;-77
2023/04/11 04:58:15;;;;;;;0.70;0.60;;;;;;;11.87;63.87;99442.00;5044501;28;20721;-77
2023/04/11 05:00:41;;;;;;;0.80;0.60;;;;;;;11.80;63.93;99448.59;5043235;28;20252;-78
2023/04/11 05:03:19;;;;;;;1.27;0.90;;;;;;;11.76;64.10;99455.88;5041602;28;20480;-78
2023/04/11 05:05:45;;;;;;;1.20;1.10;;;;;;;11.73;64.08;99462.19;5041865;28;20198;-77
2023/04/11 05:08:11;;;;;;;0.70;0.70;;;;;;;11.71;64.23;99466.72;5045130;28;20230;-77
2023/04/11 05:10:37;;;;;;;1.15;0.70;;;;;;;11.68;64.25;99482.72;5042853;28;20255;-78
2023/04/11 05:13:04;;;;;;;1.10;0.70;;;;;;;11.57;64.34;99484.44;5043840;28;20225;-77
2023/04/11 05:15:30;;;;;;;1.30;0.83;;;;;;;11.46;64.96;99493.06;5039449;22;20454;-79
2023/04/11 05:17:56;;;;;;;1.23;0.60;;;;;;;11.37;65.29;99496.31;5023842;28;20229;-79
2023/04/11 05:20:23;;;;;;;1.60;0.70;;;;;;;11.36;65.46;99503.38;5038650;28;20252;-79
2023/04/11 05:22:49;;;;;;;1.35;0.70;;;;;;;11.30;65.71;99499.38;5039010;28;20201;-78
2023/04/11 05:25:16;;;;;;;0.70;0.70;;;;;;;11.26;65.64;99505.81;5028640;28;20312;-78
2023/04/11 05:27:42;;;;;;;0.70;0.70;;;;;;;11.27;65.59;99512.75;5023768;28;20200;-78
2023/04/11 05:30:09;;;;;;;1.00;0.60;;;;;;;11.29;65.52;99510.03;5024896;28;20201;-78
2023/04/11 05:32:37;;;;;;;3.40;0.70;;;;;;;11.29;65.15;99508.22;5026264;28;20186;-79
2023/04/11 05:35:03;;;;;;;1.30;0.90;;;;;;;11.31;64.74;99526.50;5023620;28;20213;-79
2023/04/11 05:37:37;;;;;;;2.92;0.70;;;;;;;11.29;64.19;99518.75;5025210;28;20200;-78
2023/04/11 05:40:03;;;;;;;1.00;0.80;;;;;;;11.32;64.24;99519.50;5020286;28;20720;-79
2023/04/11 05:42:28;;;;;;;1.10;0.90;;;;;;;11.33;63.88;99514.09;5023463;28;20201;-78
2023/04/11 05:44:53;;;;;;;1.07;0.90;;;;;;;11.36;63.52;99527.03;5043901;28;20216;-79
2023/04/11 05:47:20;;;;;;;0.85;0.80;;;;;;;11.35;62.60;99525.38;5020854;28;20197;-79
2023/04/11 05:49:47;;;;;;;1.20;0.67;;;;;;;11.35;61.75;99524.53;5021203;28;20200;-79
2023/04/11 05:52:13;;;;;;;1.30;1.20;;;;;;;11.31;61.67;99523.88;5019375;28;20615;-79
2023/04/11 05:54:39;;;;;;;1.43;0.90;;;;;;;11.33;61.42;99515.91;5041994;28;20202;-78
2023/04/11 05:57:06;;;;;;;1.20;0.90;;;;;;;11.30;60.82;99520.41;5042604;28;20206;-79
2023/04/11 05:59:33;;;;;;;0.60;0.60;;;;;;;11.21;60.40;99521.06;5041029;28;20194;-79
2023/04/11 06:01:59;;;;;;;1.70;0.80;;;;;;;11.17;60.29;99521.34;5047197;28;20224;-79
2023/04/11 06:04:24;;;;;;;1.00;0.80;;;;;;;11.14;60.13;99518.94;5044558;28;20857;-79
2023/04/11 06:06:51;;;;;;;2.00;0.80;;;;;;;11.12;59.63;99510.31;5045663;28;20483;-78
2023/04/11 06:09:16;;;;;;;2.30;1.00;;;;;;;11.14;59.46;99517.16;5044019;28;20305;-78
2023/04/11 06:11:42;;;;;;;1.37;0.80;;;;;;;11.20;59.33;99524.59;5043694;28;20616;-78
2023/04/11 06:14:07;;;;;;;2.60;1.00;;;;;;;11.26;59.15;99521.59;5046153;28;20228;-78
2023/04/11 06:16:37;;;;;;;1.80;1.20;;;;;;;11.30;58.92;99520.41;5041839;28;20302;-78
2023/04/11 06:19:04;;;;;;;1.10;1.00;;;;;;;11.29;58.22;99524.00;5028145;28;20288;-78
2023/04/11 06:21:31;;;;;;;4.70;0.90;;;;;;;11.30;58.55;99536.19;5045177;28;20225;-78
2023/04/11 06:24:04;;;;;;;2.40;1.25;;;;;;;11.34;58.69;99547.38;5044808;28;20288;-78
2023/04/11 06:26:30;;;;;;;2.72;1.27;;;;;;;11.38;59.02;99553.25;5047308;28;20293;-78
2023/04/11 06:28:55;;;;;;;1.23;1.10;;;;;;;11.39;59.49;99547.88;5044037;28;20329;-79
2023/04/11 06:31:20;;;;;;;1.20;1.10;;;;;;;11.39;60.33;99547.03;5037594;28;20198;-78
2023/04/11 06:33:46;;;;;;;1.67;1.30;;;;;;;11.40;61.31;99543.47;5040303;28;20292;-79
2023/04/11 06:36:11;;;;;;;2.23;1.07;;;;;;;11.38;62.00;99545.34;5040254;28;20290;-80
2023/04/11 06:38:40;;;;;;;2.33;1.10;;;;;;;11.37;62.49;99554.16;5040224;28;20289;-79
2023/04/11 06:41:05;;;;;;;4.03;1.02;;;;;;;11.32;62.82;99559.78;5037929;28;20220;-79
2023/04/11 06:43:31;;;;;;;0.97;0.90;;;;;;;11.29;63.26;99563.44;5040195;28;20194;-79
2023/04/11 06:45:59;;;;;;;2.40;1.30;;;;;;;11.27;63.27;99562.69;5039977;28;20212;-79
2023/04/11 06:48:25;;;;;;;2.55;0.95;;;;;;;11.30;63.29;99582.69;5031250;28;20243;-79
2023/04/11 06:50:50;;;;;;;1.17;1.03;;;;;;;11.35;63.19;99582.38;5039223;28;20201;-79
2023/04/11 06:53:15;;;;;;;2.33;1.17;;;;;;;11.43;63.03;99595.88;5038284;28;20201;-79
2023/04/11 06:55:41;;;;;;;2.60;2.10;;;;;;;11.49;62.81;99590.19;5039387;28;20205;-79
2023/04/11 07:03:25;;;;;;;1.77;1.63;;;;;;;11.54;62.30;99601.25;5035706;28;20390;-80
2023/04/11 07:05:50;;;;;;;1.10;0.70;;;;;;;11.54;61.93;99595.97;5023551;28;20753;-81
2023/04/11 07:08:18;;;;;;;1.50;0.93;;;;;;;11.57;62.18;99601.03;5022989;28;20536;-81
2023/04/11 07:10:44;;;;;;;1.10;1.00;;;;;;;11.58;62.31;99599.22;5023781;28;20568;-81
2023/04/11 07:13:09;;;;;;;1.00;0.80;;;;;;;11.58;62.12;99602.69;5022261;28;20206;-80
2023/04/11 07:15:34;;;;;;;3.70;0.90;;;;;;;11.56;62.31;99594.09;5022067;28;20211;-82
2023/04/11 07:18:00;;;;;;;1.23;0.87;;;;;;;11.49;62.79;99577.88;5021430;28;20209;-81
2023/04/11 07:20:26;;;;;;;1.53;1.17;;;;;;;11.39;63.40;99565.44;5020281;28;20207;-81
2023/04/11 07:22:51;;;;;;;2.90;1.20;;;;;;;11.35;63.51;99570.06;5023831;28;20444;-80
2023/04/11 07:25:21;;;;;;;1.57;1.47;;;;;;;11.36;63.54;99581.44;5021217;28;20222;-81
2023/04/11 07:27:50;;;;;;;2.13;1.08;;;;;;;11.42;63.49;99581.00;5021071;28;20292;-81
2023/04/11 07:30:16;;;;;;;1.10;0.85;;;;;;;11.43;63.33;99567.78;5021515;28;20197;-81
2023/04/11 07:32:41;;;;;;;1.20;1.00;;;;;;;11.48;62.77;99572.72;5022191;28;20744;-81
2023/04/11 07:35:07;;;;;;;1.73;1.10;;;;;;;11.56;62.95;99580.94;5021384;28;20444;-81
2023/04/11 07:37:32;;;;;;;1.67;1.20;;;;;;;11.63;62.95;99571.66;5023720;28;20347;-81
2023/04/11 07:39:58;;;;;;;3.00;1.60;;;;;;;11.71;62.94;99574.59;5024047;28;20540;-81
2023/04/11 07:42:23;;;;;;;1.10;1.00;;;;;;;11.78;63.14;99576.84;5020066;28;20678;-81
2023/04/11 07:44:49;;;;;;;1.87;1.30;;;;;;;11.85;63.07;99583.34;5024272;28;20258;-80
2023/04/11 07:47:14;;;;;;;2.07;1.00;;;;;;;11.90;63.08;99599.69;5025903;28;20285;-81
2023/04/11 07:49:40;;;;;;;2.87;1.10;;;;;;;11.96;62.88;99601.88;5004055;28;20225;-81
2023/04/11 07:52:05;;;;;;;1.00;0.90;;;;;;;11.98;62.93;99605.25;5023060;28;20194;-81
2023/04/11 07:54:31;;;;;;;0.80;0.80;;;;;;;11.99;62.75;99596.44;5018388;28;20679;-81
2023/04/11 07:56:57;;;;;;;1.80;1.00;;;;;;;12.01;62.70;99601.56;5025417;28;20198;-81
2023/04/11 07:59:22;;;;;;;2.17;1.00;;;;;;;12.03;62.51;99603.16;5025665;28;20940;-81
2023/04/11 08:01:47;;;;;;;1.90;1.20;;;;;;;12.09;62.40;99605.34;5024516;28;20305;-78
2023/04/11 08:04:13;;;;;;;1.30;0.90;;;;;;;12.14;62.32;99605.03;5026608;28;20194;-77
2023/04/11 08:06:38;;;;;;;2.67;1.63;;;;;;;12.24;61.75;99621.03;5026985;28;20726;-79
2023/04/11 08:09:04;;;;;;;0.90;0.80;;;;;;;12.34;61.22;99617.66;5017813;28;20739;-79
2023/04/11 08:11:32;;;;;;;1.45;0.90;;;;;;;12.45;60.81;99616.91;5023435;28;20198;-77
2023/04/11 08:13:58;;;;;;;1.40;1.10;;;;;;;12.56;59.62;99621.41;5024798;28;20298;-79
2023/04/11 08:16:24;;;;;;;1.20;1.10;;;;;;;12.66;59.46;99608.38;5025039;28;20693;-79
2023/04/11 08:18:49;;;;;;;1.37;1.13;;;;;;;12.80;59.23;99613.53;5024125;28;20210;-79
2023/04/11 08:21:15;;;;;;;1.83;1.10;;;;;;;12.97;58.80;99614.91;5024225;28;20557;-79
2023/04/11 08:23:40;;;;;;;1.80;0.90;;;;;;;13.14;58.17;99603.13;5002186;28;20210;-78
2023/04/11 08:26:07;;;;;;;2.97;1.30;;;;;;;13.31;57.90;99597.44;5025335;28;20264;-78
2023/04/11 08:28:32;;;;;;;2.75;1.50;;;;;;;13.56;57.20;99606.16;5021820;28;20485;-78
2023/04/11 08:31:01;;;;;;;3.30;1.30;;;;;;;13.91;56.06;99600.81;5025627;28;20524;-77
2023/04/11 08:33:27;;;;;;;3.05;1.42;;;;;;;14.30;54.83;99598.63;5024846;28;20209;-78
2023/04/11 08:35:52;;;;;;;2.50;1.63;;;;;;;14.62;53.79;99613.78;5026994;28;20201;-79
2023/04/11 08:38:19;;;;;;;1.33;1.20;;;;;;;14.88;52.81;99612.50;5025752;28;20206;-77
2023/04/11 08:40:45;;;;;;;2.05;1.10;;;;;;;15.04;51.32;99614.72;5024531;28;20222;-78
2023/04/11 08:43:13;;;;;;;1.38;1.00;;;;;;;15.09;51.20;99616.97;5026019;28;20202;-78
2023/04/11 08:45:41;;;;;;;2.80;0.90;;;;;;;15.08;51.03;99629.38;5027590;28;20213;-77
2023/04/11 08:48:11;;;;;;;0.95;0.85;;;;;;;15.01;51.39;99630.84;5025502;28;20536;-77
2023/04/11 08:50:39;;;;;;;1.40;1.10;;;;;;;14.92;51.65;99619.22;5026292;28;20198;-78
2023/04/11 08:53:07;;;;;;;1.00;0.80;;;;;;;14.89;52.04;99618.63;5027618;28;20194;-79
2023/04/11 08:55:33;;;;;;;1.98;1.77;;;;;;;14.83;52.64;99618.16;5026119;28;20202;-80
2023/04/11 08:57:58;;;;;;;0.73;0.73;;;;;;;14.83;51.71;99628.75;5029113;28;20296;-78
2023/04/11 09:00:25;;;;;;;3.33;1.10;;;;;;;14.77;51.97;99621.31;5029735;28;20970;-78
2023/04/11 09:03:05;;;;;;;1.42;1.02;;;;;;;14.78;52.03;99620.34;5029697;28;20249;-78
2023/04/11 09:05:48;;;;;;;1.85;1.40;;;;;;;14.80;51.89;99620.22;5026211;28;20208;-78
2023/04/11 09:08:15;;;;;;;1.40;1.13;;;;;;;14.75;52.15;99617.94;5028076;28;20302;-78
2023/04/11 09:10:44;;;;;;;2.30;1.00;;;;;;;14.75;52.26;99612.66;5029240;28;20224;-79
2023/04/11 09:13:21;;;;;;;2.20;1.20;;;;;;;14.91;51.86;99614.06;5025300;28;21053;-77
2023/04/11 09:16:01;;;;;;;2.92;1.23;;;;;;;15.13;51.50;99608.69;5027323;28;20463;-80
2023/04/11 09:18:41;;;;;;;3.53;1.40;;;;;;;15.50;49.64;99605.63;5027607;28;20954;-79
2023/04/11 09:21:09;;;;;;;1.65;0.90;;;;;;;15.60;47.50;99603.84;5026056;28;20221;-80
2023/04/11 09:23:35;;;;;;;2.67;1.10;;;;;;;15.72;46.87;99595.91;5025876;28;20225;-78
2023/04/11 09:26:00;;;;;;;1.83;1.00;;;;;;;15.82;45.41;99596.75;5023114;28;20195;-79
2023/04/11 09:28:26;;;;;;;2.10;1.00;;;;;;;15.91;45.07;99602.13;5026982;28;20214;-79
2023/04/11 09:30:53;;;;;;;2.67;1.17;;;;;;;16.04;45.00;99599.25;5028651;28;20187;-78
2023/04/11 09:33:23;;;;;;;2.90;1.20;;;;;;;16.23;44.45;99602.94;5026748;28;21187;-78
2023/04/11 09:35:52;;;;;;;1.45;0.90;;;;;;;16.40;43.60;99598.84;5029822;28;20674;-78
2023/04/11 09:38:32;;;;;;;2.30;1.00;;;;;;;16.41;43.18;99605.78;5029447;28;20281;-78
2023/04/11 09:40:59;;;;;;;2.03;1.30;;;;;;;16.40;43.22;99615.56;5027621;28;20753;-78
2023/04/11 09:43:25;;;;;;;6.28;1.00;;;;;;;16.39;43.47;99608.59;5029541;28;20200;-79
2023/04/11 09:46:07;;;;;;;1.73;0.80;;;;;;;16.38;43.30;99605.09;5030155;28;20210;-77
2023/04/11 09:48:34;;;;;;;1.45;1.00;;;;;;;16.38;43.24;99609.56;5023982;28;20198;-77
2023/04/11 09:51:02;;;;;;;4.88;1.40;;;;;;;16.30;42.79;99606.75;5026969;28;20187;-77
2023/04/11 09:53:30;;;;;;;3.75;1.00;;;;;;;16.28;41.92;99609.53;5024329;28;20973;-77
2023/04/11 09:55:55;;;;;;;2.22;0.98;;;;;;;16.27;41.59;99601.72;5030563;28;20647;-77
2023/04/11 09:58:21;;;;;;;1.00;0.80;;;;;;;16.38;40.85;99613.03;5032765;28;20204;-78
2023/04/11 10:00:48;;;;;;;2.23;1.10;;;;;;;16.55;40.59;99608.94;5025058;28;20527;-78
2023/04/11 10:03:13;;;;;;;3.80;1.25;;;;;;;16.73;39.62;99600.28;5030658;28;20583;-77
2023/04/11 10:05:39;;;;;;;1.70;1.17;;;;;;;16.77;39.04;99609.69;5025630;28;20236;-78
2023/04/11 10:08:25;;;;;;;1.75;0.90;;;;;;;16.80;38.98;99604.94;5031013;28;20217;-78
2023/04/11 10:10:51;;;;;;;0.95;0.80;;;;;;;16.82;38.68;99599.50;5029865;28;20893;-78
2023/04/11 10:13:46;;;;;;;3.55;1.33;;;;;;;16.78;38.49;99592.81;5029380;28;20201;-79
2023/04/11 10:16:20;;;;;;;1.63;1.25;;;;;;;16.61;38.12;99604.88;5010267;28;20224;-77
2023/04/11 10:18:51;;;;;;;2.45;0.90;;;;;;;16.43;38.78;99601.22;5030101;28;20212;-78
2023/04/11 10:21:26;;;;;;;1.48;1.10;;;;;;;16.33;38.91;99609.13;5028376;28;20215;-78
2023/04/11 10:24:11;;;;;;;4.10;1.10;;;;;;;16.23;39.15;99597.63;5028385;28;20225;-79
2023/04/11 10:27:04;;;;;;;2.42;0.90;;;;;;;16.20;39.21;99584.66;5029588;28;20897;-77
2023/04/11 10:29:32;;;;;;;0.93;0.80;;;;;;;16.18;39.51;99586.63;5028221;28;20745;-78
2023/04/11 10:32:16;;;;;;;2.17;1.20;;;;;;;16.20;39.68;99582.00;5029740;28;20213;-78
2023/04/11 10:34:51;;;;;;;3.38;1.10;;;;;;;16.24;39.55;99586.09;5024308;28;20229;-78
2023/04/11 10:37:18;;;;;;;1.77;1.13;;;;;;;16.25;39.62;99585.94;5017602;28;20208;-79
2023/04/11 10:39:52;;;;;;;1.77;1.15;;;;;;;16.28;39.81;99582.16;5018653;28;20647;-80
2023/04/11 10:42:33;;;;;;;1.20;1.10;;;;;;;16.24;40.63;99591.38;5023048;28;20761;-80
2023/04/11 10:45:13;;;;;;;1.70;1.60;;;;;;;16.15;40.87;99587.72;5018394;28;20785;-79
2023/04/11 10:47:39;;;;;;;2.67;1.38;;;;;;;16.12;41.04;99583.53;5022031;28;20740;-80
2023/04/11 10:50:23;;;;;;;1.87;1.20;;;;;;;16.15;41.23;99580.63;5019327;28;20210;-79
2023/04/11 10:52:49;;;;;;;2.55;1.17;;;;;;;16.24;41.16;99571.00;5024527;28;20703;-80
2023/04/11 10:55:18;;;;;;;0.80;0.80;;;;;;;16.44;41.01;99576.38;5027498;28;20274;-80
2023/04/11 10:58:03;;;;;;;2.28;0.90;;;;;;;16.68;40.68;99576.81;5025771;28;20286;-80
2023/04/11 11:00:28;;;;;;;2.33;1.10;;;;;;;16.88;40.17;99569.78;5024245;28;20629;-80
2023/04/11 11:02:54;;;;;;;4.07;1.10;;;;;;;17.05;38.55;99570.06;5025657;28;20713;-80
2023/04/11 11:05:23;;;;;;;1.53;0.90;;;;;;;17.17;37.01;99571.56;5012728;28;20204;-80
2023/04/11 11:07:50;;;;;;;1.27;0.95;;;;;;;17.31;36.27;99576.47;5015945;28;20465;-80
2023/04/11 11:10:34;;;;;;;1.00;0.90;;;;;;;17.41;35.07;99577.28;5017951;28;20792;-80
2023/04/11 11:12:59;;;;;;;3.50;1.13;;;;;;;17.50;34.98;99582.72;5020809;28;20258;-81
2023/04/11 11:15:25;;;;;;;1.90;1.17;;;;;;;17.57;34.96;99574.03;5012687;23;20263;-86
2023/04/11 11:17:50;;;;;;;3.63;1.10;;;;;;;17.76;34.21;99572.31;4998773;28;20197;-85
2023/04/11 11:20:19;;;;;;;1.50;0.97;;;;;;;17.82;33.27;99575.28;5019437;28;20215;-85
2023/04/11 11:22:58;;;;;;;2.80;1.00;;;;;;;17.76;32.64;99575.78;5014052;28;20247;-84
2023/04/11 11:25:24;;;;;;;2.42;1.00;;;;;;;17.69;33.04;99574.72;5006117;28;20205;-84
2023/04/11 11:28:07;;;;;;;1.33;0.90;;;;;;;17.66;33.44;99581.16;5015472;28;20203;-85
2023/04/11 11:30:34;;;;;;;1.90;1.10;;;;;;;17.69;33.20;99580.03;5010423;28;20452;-81
2023/04/11 11:33:14;;;;;;;1.88;1.65;;;;;;;17.72;33.33;99571.78;5014933;28;20267;-84
2023/04/11 11:35:50;;;;;;;6.35;3.55;;;;;;;17.73;33.08;99572.59;5012688;28;20206;-83
2023/04/11 11:38:20;;;;;;;8.43;1.10;;;;;;;17.76;32.45;99564.34;5016010;28;20245;-83
2023/04/11 11:40:47;;;;;;;3.00;1.10;;;;;;;17.73;32.70;99565.47;5013416;28;20289;-82
2023/04/11 11:43:13;;;;;;;2.60;1.02;;;;;;;17.72;32.42;99569.13;5010156;28;20216;-83